createdAt,value
2023-03-10T00:00:38.630Z,93101.81
2023-03-10T00:03:05.781Z,93101.56
2023-03-10T00:05:32.598Z,93102.06
2023-03-10T00:07:59.493Z,93113.88
2023-03-10T00:10:26.393Z,93095.19
2023-03-10T00:12:53.602Z,93063.84
2023-03-10T00:15:20.591Z,93071.97
2023-03-10T00:17:50.159Z,93087.25
2023-03-10T00:20:17.041Z,93091.78
2023-03-10T00:22:43.767Z,93090.00
2023-03-10T00:25:11.372Z,93070.78
2023-03-10T00:27:38.691Z,93071.31
2023-03-10T00:30:05.951Z,93074.81
2023-03-10T00:32:36.035Z,93048.63
2023-03-10T00:35:05.561Z,93059.38
2023-03-10T00:37:32.267Z,93029.69
2023-03-10T00:39:59.120Z,93026.09
2023-03-10T00:42:26.890Z,93015.56
2023-03-10T00:44:53.920Z,92997.56
2023-03-10T00:47:22.544Z,93006.56
2023-03-10T00:49:50.706Z,93026.47
2023-03-10T00:52:17.775Z,93012.03
2023-03-10T00:54:44.512Z,93012.00
2023-03-10T00:57:11.613Z,93023.91
2023-03-10T00:59:50.105Z,93007.91
2023-03-10T01:02:21.252Z,93000.34
2023-03-10T01:04:48.933Z,92987.16
2023-03-10T01:07:15.895Z,92988.28
2023-03-10T01:09:43.009Z,92988.13
2023-03-10T01:12:10.566Z,92971.09
2023-03-10T01:14:37.920Z,92977.47
2023-03-10T01:17:05.634Z,92969.16
2023-03-10T01:19:32.482Z,92974.69
2023-03-10T01:22:01.201Z,92951.91
2023-03-10T01:24:27.922Z,92938.53
2023-03-10T01:26:55.581Z,92951.41
2023-03-10T01:29:22.373Z,92939.25
2023-03-10T01:31:49.493Z,92935.13
2023-03-10T01:34:16.212Z,92926.19
2023-03-10T01:36:42.974Z,92912.06
2023-03-10T01:39:10.755Z,92890.06
2023-03-10T01:41:39.447Z,92882.66
2023-03-10T01:44:13.137Z,92902.84
2023-03-10T01:47:02.234Z,92905.22
2023-03-10T01:49:38.654Z,92909.31
2023-03-10T01:52:20.681Z,92911.69
2023-03-10T01:54:54.591Z,92899.81
2023-03-10T01:57:25.920Z,92892.47
2023-03-10T01:59:54.281Z,92889.06
2023-03-10T02:02:21.952Z,92863.09
2023-03-10T02:04:52.321Z,92873.88
2023-03-10T02:07:27.955Z,92860.03
2023-03-10T02:09:57.009Z,92863.00
2023-03-10T02:12:23.825Z,92878.25
2023-03-10T02:14:53.091Z,92857.19
2023-03-10T02:17:23.274Z,92870.75
2023-03-10T02:19:56.159Z,92864.66
2023-03-10T02:22:23.076Z,92849.88
2023-03-10T02:24:57.148Z,92853.28
2023-03-10T02:27:27.321Z,92841.06
2023-03-10T02:30:06.604Z,92834.47
2023-03-10T02:32:39.764Z,92820.72
2023-03-10T02:35:07.097Z,92834.66
2023-03-10T02:37:39.993Z,92829.50
2023-03-10T02:40:44.582Z,92809.78
2023-03-10T02:43:18.112Z,92825.66
2023-03-10T02:45:47.730Z,92825.25
2023-03-10T02:48:33.524Z,92823.09
2023-03-10T02:51:04.587Z,92796.09
2023-03-10T02:53:32.465Z,92787.34
2023-03-10T02:56:00.165Z,92773.75
2023-03-10T02:58:31.342Z,92765.75
2023-03-10T03:00:58.987Z,92764.63
2023-03-10T03:03:26.591Z,92757.66
2023-03-10T03:05:53.903Z,92755.34
2023-03-10T03:08:21.496Z,92770.06
2023-03-10T03:10:48.493Z,92750.81
2023-03-10T03:13:15.822Z,92772.16
2023-03-10T03:15:43.019Z,92775.66
2023-03-10T03:18:11.506Z,92793.19
2023-03-10T03:20:41.598Z,92785.41
2023-03-10T03:23:10.466Z,92792.53
2023-03-10T03:25:41.798Z,92777.06
2023-03-10T03:28:12.751Z,92760.16
2023-03-10T03:30:41.627Z,92749.88
2023-03-10T03:33:08.798Z,92751.38
2023-03-10T03:35:38.210Z,92766.16
2023-03-10T03:38:06.992Z,92770.16
2023-03-10T03:40:35.839Z,92759.75
2023-03-10T03:43:04.674Z,92764.59
2023-03-10T03:45:33.196Z,92753.78
2023-03-10T03:48:01.294Z,92752.06
2023-03-10T03:50:30.973Z,92724.06
2023-03-10T03:53:03.693Z,92712.22
2023-03-10T03:55:30.874Z,92714.28
2023-03-10T03:57:58.411Z,92714.53
2023-03-10T04:00:25.706Z,92727.72
2023-03-10T04:03:00.188Z,92759.44
2023-03-10T04:05:28.257Z,92782.50
2023-03-10T04:07:55.128Z,92748.13
2023-03-10T04:10:27.210Z,92732.00
2023-03-10T04:12:54.414Z,92761.06
2023-03-10T04:15:22.482Z,92769.66
2023-03-10T04:17:49.451Z,92782.69
2023-03-10T04:20:16.869Z,92797.22
2023-03-10T04:22:46.664Z,92770.94
2023-03-10T04:25:14.032Z,92769.44
2023-03-10T04:27:41.234Z,92745.59
2023-03-10T04:30:12.269Z,92745.59
2023-03-10T04:32:41.180Z,92761.19
2023-03-10T04:35:12.220Z,92751.47
2023-03-10T04:37:39.428Z,92785.94
2023-03-10T04:40:09.461Z,92790.81
2023-03-10T04:42:36.602Z,92802.13
2023-03-10T04:45:04.641Z,92834.22
2023-03-10T04:47:31.672Z,92802.50
2023-03-10T04:50:00.096Z,92804.53
2023-03-10T04:52:27.522Z,92816.34
2023-03-10T04:54:54.559Z,92802.06
2023-03-10T04:57:21.673Z,92819.41
2023-03-10T04:59:48.403Z,92840.38
2023-03-10T05:02:15.323Z,92834.25
2023-03-10T05:04:42.916Z,92804.19
2023-03-10T05:07:10.101Z,92851.03
2023-03-10T05:09:42.863Z,92846.69
2023-03-10T05:12:10.515Z,92833.72
2023-03-10T05:14:38.322Z,92811.78
2023-03-10T05:17:06.864Z,92804.59
2023-03-10T05:19:35.440Z,92789.03
2023-03-10T05:22:05.118Z,92811.78
2023-03-10T05:24:34.234Z,92793.19
2023-03-10T05:27:02.652Z,92803.88
2023-03-10T05:29:30.547Z,92798.22
2023-03-10T05:32:04.232Z,92834.06
2023-03-10T05:34:35.963Z,92824.19
2023-03-10T05:37:03.738Z,92816.22
2023-03-10T05:39:30.568Z,92798.22
2023-03-10T05:42:00.470Z,92806.34
2023-03-10T05:44:30.924Z,92825.44
2023-03-10T05:46:59.091Z,92822.38
2023-03-10T05:49:25.924Z,92812.59
2023-03-10T05:51:53.433Z,92813.34
2023-03-10T05:54:20.776Z,92803.50
2023-03-10T05:56:48.030Z,92812.22
2023-03-10T05:59:14.829Z,92819.09
2023-03-10T06:01:42.066Z,92790.66
2023-03-10T06:04:08.857Z,92790.13
2023-03-10T06:06:35.848Z,92820.00
2023-03-10T06:09:03.777Z,92811.94
2023-03-10T06:11:30.513Z,92817.38
2023-03-10T06:13:57.261Z,92831.06
2023-03-10T06:16:24.108Z,92837.22
2023-03-10T06:18:55.963Z,92836.00
2023-03-10T06:21:23.632Z,92827.50
2023-03-10T06:23:51.110Z,92825.59
2023-03-10T06:26:18.245Z,92801.66
2023-03-10T06:28:46.516Z,92801.38
2023-03-10T06:31:17.722Z,92805.16
2023-03-10T06:33:45.183Z,92813.56
2023-03-10T06:36:13.716Z,92811.91
2023-03-10T06:38:40.936Z,92830.47
2023-03-10T06:41:08.969Z,92809.03
2023-03-10T06:43:36.384Z,92800.81
2023-03-10T06:46:05.797Z,92800.94
2023-03-10T06:48:33.127Z,92820.19
2023-03-10T06:51:00.405Z,92809.38
2023-03-10T06:53:28.431Z,92831.94
2023-03-10T06:56:03.161Z,92825.97
2023-03-10T06:58:31.099Z,92834.31
2023-03-10T07:00:58.866Z,92804.72
2023-03-10T07:03:26.447Z,92777.59
2023-03-10T07:05:53.731Z,92786.84
2023-03-10T07:08:20.928Z,92775.69
2023-03-10T07:10:47.782Z,92779.53
2023-03-10T07:13:16.388Z,92783.41
2023-03-10T07:15:46.551Z,92759.22
2023-03-10T07:18:15.031Z,92734.22
2023-03-10T07:20:45.159Z,92761.72
2023-03-10T07:23:13.908Z,92762.53
2023-03-10T07:25:40.879Z,92745.88
2023-03-10T07:28:08.680Z,92721.28
2023-03-10T07:30:35.618Z,92727.75
2023-03-10T07:33:02.384Z,92702.84
2023-03-10T07:35:29.208Z,92700.91
2023-03-10T07:37:55.924Z,92708.03
2023-03-10T07:40:25.011Z,92704.31
2023-03-10T07:42:54.611Z,92706.94
2023-03-10T07:45:26.197Z,92695.38
2023-03-10T07:47:54.366Z,92675.69
2023-03-10T07:50:21.946Z,92686.13
2023-03-10T07:52:49.126Z,92677.41
2023-03-10T07:55:16.036Z,92693.13
2023-03-10T07:57:43.300Z,92690.31
2023-03-10T08:00:11.557Z,92669.72
2023-03-10T08:02:41.944Z,92669.06
2023-03-10T08:05:10.356Z,92662.94
2023-03-10T08:07:38.137Z,92670.53
2023-03-10T08:10:05.594Z,92676.22
2023-03-10T08:12:32.815Z,92660.94
2023-03-10T08:15:00.156Z,92668.59
2023-03-10T08:17:31.021Z,92673.47
2023-03-10T08:19:59.465Z,92672.81
2023-03-10T08:22:27.242Z,92684.31
2023-03-10T08:24:54.349Z,92684.94
2023-03-10T08:27:21.717Z,92683.13
2023-03-10T08:29:48.741Z,92710.00
2023-03-10T08:32:15.913Z,92722.06
2023-03-10T08:34:43.524Z,92699.16
2023-03-10T08:37:10.735Z,92715.06
2023-03-10T08:39:37.928Z,92708.16
2023-03-10T08:42:04.788Z,92699.56
2023-03-10T08:44:31.863Z,92675.09
2023-03-10T08:46:58.816Z,92691.88
2023-03-10T08:49:25.645Z,92690.34
2023-03-10T08:51:52.689Z,92690.41
2023-03-10T08:54:21.554Z,92686.13
2023-03-10T08:56:49.393Z,92684.78
2023-03-10T08:59:16.617Z,92684.22
2023-03-10T09:01:43.938Z,92680.94
2023-03-10T09:04:11.117Z,92694.28
2023-03-10T09:06:38.697Z,92698.06
2023-03-10T09:09:08.038Z,92696.16
2023-03-10T09:11:38.964Z,92712.28
2023-03-10T09:14:08.262Z,92697.09
2023-03-10T09:16:37.824Z,92696.91
2023-03-10T09:19:05.026Z,92714.94
2023-03-10T09:21:33.749Z,92704.84
2023-03-10T09:24:02.627Z,92710.22
2023-03-10T09:26:30.775Z,92715.44
2023-03-10T09:28:58.016Z,92721.19
2023-03-10T09:31:30.607Z,92719.75
2023-03-10T09:33:57.494Z,92714.19
2023-03-10T09:36:24.399Z,92715.31
2023-03-10T09:38:51.232Z,92710.56
2023-03-10T09:41:55.849Z,92702.69
2023-03-10T09:44:50.476Z,92718.63
2023-03-10T09:47:35.839Z,92729.22
2023-03-10T09:50:32.934Z,92737.13
2023-03-10T09:53:07.322Z,92759.91
2023-03-10T09:55:47.461Z,92733.59
2023-03-10T09:58:53.901Z,92751.19
2023-03-10T10:01:23.784Z,92766.41
2023-03-10T10:03:58.185Z,92742.09
2023-03-10T10:06:33.026Z,92752.28
2023-03-10T10:09:05.542Z,92749.03
2023-03-10T10:11:34.816Z,92740.72
2023-03-10T10:14:22.395Z,92737.31
2023-03-10T10:16:56.325Z,92755.97
2023-03-10T10:19:25.872Z,92750.19
2023-03-10T10:22:02.191Z,92747.28
2023-03-10T10:24:29.985Z,92767.63
2023-03-10T10:26:57.296Z,92775.69
2023-03-10T10:29:26.932Z,92773.25
2023-03-10T10:32:19.221Z,92779.13
2023-03-10T10:34:49.258Z,92764.91
2023-03-10T10:37:24.338Z,92787.16
2023-03-10T10:39:52.600Z,92793.75
2023-03-10T10:42:26.890Z,92783.66
2023-03-10T10:45:23.309Z,92800.31
2023-03-10T10:47:52.030Z,92773.16
2023-03-10T10:50:33.096Z,92789.31
2023-03-10T10:53:27.069Z,92811.72
2023-03-10T10:56:15.111Z,92789.50
2023-03-10T10:58:44.158Z,92809.59
2023-03-10T11:01:15.297Z,92763.28
2023-03-10T11:03:48.928Z,92735.28
2023-03-10T11:06:27.827Z,92733.81
2023-03-10T11:09:18.453Z,92730.56
2023-03-10T11:12:02.704Z,92734.34
2023-03-10T11:14:52.435Z,92726.16
2023-03-10T11:17:47.712Z,92724.34
2023-03-10T11:20:41.968Z,92690.91
2023-03-10T11:23:50.081Z,92708.88
2023-03-10T11:26:45.470Z,92693.59
2023-03-10T11:29:30.809Z,92738.59
2023-03-10T11:32:25.800Z,92715.09
2023-03-10T11:34:56.748Z,92698.22
2023-03-10T11:37:41.545Z,92680.88
2023-03-10T11:40:35.947Z,92694.47
2023-03-10T11:43:27.115Z,92711.94
2023-03-10T11:45:57.059Z,92705.47
2023-03-10T11:48:54.903Z,92699.53
2023-03-10T11:51:32.897Z,92685.50
2023-03-10T11:54:04.796Z,92711.41
2023-03-10T11:56:32.193Z,92719.72
2023-03-10T11:59:18.332Z,92715.00
2023-03-10T12:01:54.027Z,92723.06
2023-03-10T12:04:39.394Z,92706.63
2023-03-10T12:07:15.953Z,92710.81
2023-03-10T12:09:54.353Z,92701.22
2023-03-10T12:12:29.435Z,92738.56
2023-03-10T12:14:59.416Z,92731.66
2023-03-10T12:17:27.460Z,92730.25
2023-03-10T12:20:16.336Z,92746.19
2023-03-10T12:23:01.324Z,92728.84
2023-03-10T12:25:29.096Z,92734.59
2023-03-10T12:28:17.455Z,92756.97
2023-03-10T12:31:32.561Z,92731.91
2023-03-10T12:34:17.696Z,92752.84
2023-03-10T12:36:47.387Z,92735.75
2023-03-10T12:39:40.143Z,92749.41
2023-03-10T12:42:29.335Z,92729.19
2023-03-10T12:45:18.554Z,92723.31
2023-03-10T12:47:56.749Z,92756.53
2023-03-10T12:50:48.709Z,92748.28
2023-03-10T12:53:43.730Z,92763.44
2023-03-10T12:56:13.450Z,92743.75
2023-03-10T12:58:48.792Z,92744.38
2023-03-10T13:01:20.867Z,92761.06
2023-03-10T13:03:54.128Z,92746.19
2023-03-10T13:06:28.312Z,92750.66
2023-03-10T13:08:56.445Z,92746.78
2023-03-10T13:11:23.592Z,92755.06
2023-03-10T13:13:53.957Z,92776.25
2023-03-10T13:16:21.481Z,92755.78
2023-03-10T13:18:50.103Z,92770.75
2023-03-10T13:21:24.915Z,92754.34
2023-03-10T13:23:51.893Z,92765.81
2023-03-10T13:26:19.574Z,92748.75
2023-03-10T13:29:03.094Z,92760.59
2023-03-10T13:31:34.233Z,92753.59
2023-03-10T13:34:20.306Z,92796.81
2023-03-10T13:36:49.062Z,92760.66
2023-03-10T13:39:27.739Z,92763.88
2023-03-10T13:41:58.528Z,92756.94
2023-03-10T13:44:28.916Z,92750.91
2023-03-10T13:47:01.026Z,92755.47
2023-03-10T13:49:33.221Z,92759.34
2023-03-10T13:52:04.125Z,92785.09
2023-03-10T13:54:35.415Z,92773.31
2023-03-10T13:57:26.235Z,92747.91
2023-03-10T13:59:54.925Z,92757.28
2023-03-10T14:02:32.434Z,92742.25
2023-03-10T14:05:06.246Z,92745.13
2023-03-10T14:07:36.072Z,92793.25
2023-03-10T14:10:05.933Z,92780.56
2023-03-10T14:12:45.035Z,92747.03
2023-03-10T14:15:14.785Z,92744.25
2023-03-10T14:17:47.548Z,92730.13
2023-03-10T14:20:32.522Z,92774.31
2023-03-10T14:23:00.656Z,92732.38
2023-03-10T14:25:27.823Z,92750.16
2023-03-10T14:28:06.728Z,92767.84
2023-03-10T14:30:35.079Z,92783.84
2023-03-10T14:33:02.499Z,92786.06
2023-03-10T14:35:29.867Z,92765.19
2023-03-10T14:37:56.620Z,92763.22
2023-03-10T14:40:24.964Z,92769.03
2023-03-10T14:42:54.546Z,92766.13
2023-03-10T14:45:34.279Z,92768.50
2023-03-10T14:48:13.275Z,92758.19
2023-03-10T14:50:40.655Z,92759.66
2023-03-10T14:53:12.597Z,92779.75
2023-03-10T14:55:41.857Z,92761.53
2023-03-10T14:58:14.727Z,92782.78
2023-03-10T15:00:41.576Z,92750.53
2023-03-10T15:03:11.440Z,92768.13
2023-03-10T15:05:48.283Z,92739.75
2023-03-10T15:08:18.110Z,92756.97
2023-03-10T15:10:50.932Z,92752.66
2023-03-10T15:13:22.750Z,92775.91
2023-03-10T15:15:50.898Z,92758.25
2023-03-10T15:18:20.720Z,92751.81
2023-03-10T15:20:48.309Z,92746.94
2023-03-10T15:23:19.857Z,92769.44
2023-03-10T15:25:47.324Z,92774.09
2023-03-10T15:28:15.242Z,92716.66
2023-03-10T15:30:42.172Z,92754.34
2023-03-10T15:33:10.795Z,92719.31
2023-03-10T15:35:38.831Z,92711.72
2023-03-10T15:38:05.989Z,92709.00
2023-03-10T15:40:34.727Z,92726.22
2023-03-10T15:43:01.942Z,92742.81
2023-03-10T15:45:31.450Z,92709.50
2023-03-10T15:47:59.136Z,92730.38
2023-03-10T15:50:26.615Z,92718.84
2023-03-10T15:52:55.626Z,92734.69
2023-03-10T15:55:23.927Z,92714.00
2023-03-10T15:57:52.156Z,92726.34
2023-03-10T16:00:21.820Z,92713.09
2023-03-10T16:02:49.975Z,92711.81
2023-03-10T16:05:17.206Z,92692.03
2023-03-10T16:07:44.257Z,92710.81
2023-03-10T16:10:16.718Z,92723.91
2023-03-10T16:12:43.580Z,92721.09
2023-03-10T16:15:11.340Z,92730.47
2023-03-10T16:17:38.395Z,92737.94
2023-03-10T16:20:11.928Z,92715.84
2023-03-10T16:22:43.072Z,92740.41
2023-03-10T16:25:17.953Z,92740.19
2023-03-10T16:27:46.531Z,92758.72
2023-03-10T16:30:15.756Z,92767.31
2023-03-10T16:32:47.800Z,92754.53
2023-03-10T16:35:15.564Z,92762.41
2023-03-10T16:37:42.788Z,92754.75
2023-03-10T16:40:10.323Z,92768.03
2023-03-10T16:42:37.177Z,92743.59
2023-03-10T16:45:06.489Z,92738.38
2023-03-10T16:47:34.330Z,92757.75
2023-03-10T16:50:01.814Z,92775.53
2023-03-10T16:52:28.644Z,92777.16
2023-03-10T16:55:01.421Z,92778.31
2023-03-10T16:57:28.322Z,92770.28
2023-03-10T16:59:55.303Z,92764.84
2023-03-10T17:02:22.135Z,92791.94
2023-03-10T17:04:49.557Z,92778.56
2023-03-10T17:07:17.059Z,92780.03
2023-03-10T17:09:45.867Z,92738.16
2023-03-10T17:12:12.564Z,92708.03
2023-03-10T17:14:39.311Z,92720.66
2023-03-10T17:17:08.076Z,92754.72
2023-03-10T17:19:37.010Z,92762.38
2023-03-10T17:22:04.028Z,92768.56
2023-03-10T17:24:31.484Z,92757.84
2023-03-10T17:26:58.355Z,92787.91
2023-03-10T17:29:25.089Z,92772.88
2023-03-10T17:31:52.785Z,92807.66
2023-03-10T17:34:21.351Z,92805.06
2023-03-10T17:36:52.412Z,92831.63
2023-03-10T17:39:22.689Z,92831.75
2023-03-10T17:41:51.336Z,92817.94
2023-03-10T17:44:19.982Z,92822.63
2023-03-10T17:46:47.877Z,92844.41
2023-03-10T17:49:15.612Z,92852.66
2023-03-10T17:51:44.404Z,92874.69
2023-03-10T17:54:14.285Z,92870.31
2023-03-10T17:56:41.537Z,92869.41
2023-03-10T17:59:10.714Z,92855.88
2023-03-10T18:01:37.655Z,92856.81
2023-03-10T18:04:05.256Z,92902.13
2023-03-10T18:06:36.380Z,92883.09
2023-03-10T18:09:09.369Z,92920.38
2023-03-10T18:11:37.850Z,92905.50
2023-03-10T18:14:06.781Z,92936.25
2023-03-10T18:16:37.984Z,92888.75
2023-03-10T18:19:10.504Z,92898.66
2023-03-10T18:21:38.750Z,92905.38
2023-03-10T18:24:08.312Z,92900.84
2023-03-10T18:26:37.411Z,92919.94
2023-03-10T18:29:06.660Z,92933.06
2023-03-10T18:31:34.510Z,92922.28
2023-03-10T18:34:03.486Z,92919.53
2023-03-10T18:36:30.831Z,92920.81
2023-03-10T18:38:58.172Z,92940.94
2023-03-10T18:41:27.653Z,92951.63
2023-03-10T18:43:54.380Z,92933.47
2023-03-10T18:46:23.486Z,92943.00
2023-03-10T18:48:55.626Z,92944.38
2023-03-10T18:51:27.881Z,92954.34
2023-03-10T18:53:55.123Z,92958.28
2023-03-10T18:56:26.208Z,92951.97
2023-03-10T18:58:53.781Z,92959.09
2023-03-10T19:01:22.505Z,92989.78
2023-03-10T19:03:49.407Z,92933.50
2023-03-10T19:06:16.426Z,92945.00
2023-03-10T19:08:44.258Z,92928.53
2023-03-10T19:11:11.305Z,92918.59
2023-03-10T19:13:40.677Z,92946.19
2023-03-10T19:16:09.781Z,92942.03
2023-03-10T19:18:38.809Z,92943.16
2023-03-10T19:21:07.307Z,92909.50
2023-03-10T19:23:35.032Z,92900.41
2023-03-10T19:26:03.598Z,92894.16
2023-03-10T19:28:31.410Z,92894.53
2023-03-10T19:30:58.305Z,92911.28
2023-03-10T19:33:25.141Z,92929.56
2023-03-10T19:36:10.637Z,92917.94
2023-03-10T19:38:40.948Z,92914.19
2023-03-10T19:41:16.763Z,92912.53
2023-03-10T19:43:54.667Z,92921.34
2023-03-10T19:46:22.422Z,92908.09
2023-03-10T19:48:49.168Z,92900.16
2023-03-10T19:51:23.389Z,92949.28
2023-03-10T19:53:53.535Z,92934.19
2023-03-10T19:56:22.676Z,92907.56
2023-03-10T19:58:50.105Z,92933.69
2023-03-10T20:01:24.444Z,92904.22
2023-03-10T20:03:54.083Z,92904.38
2023-03-10T20:06:21.249Z,92886.97
2023-03-10T20:08:48.234Z,92901.75
2023-03-10T20:11:14.998Z,92880.66
2023-03-10T20:13:43.292Z,92903.69
2023-03-10T20:16:12.742Z,92906.13
2023-03-10T20:18:40.326Z,92902.97
2023-03-10T20:21:09.035Z,92904.16
2023-03-10T20:23:35.950Z,92920.84
2023-03-10T20:26:07.835Z,92901.13
2023-03-10T20:28:37.045Z,92906.34
2023-03-10T20:31:04.622Z,92912.28
2023-03-10T20:33:32.024Z,92875.06
2023-03-10T20:35:58.794Z,92869.06
2023-03-10T20:38:25.662Z,92878.34
2023-03-10T20:40:53.244Z,92870.25
2023-03-10T20:43:20.137Z,92885.22
2023-03-10T20:45:50.376Z,92881.31
2023-03-10T20:48:17.403Z,92881.25
2023-03-10T20:50:44.247Z,92926.81
2023-03-10T20:53:10.930Z,92932.84
2023-03-10T20:55:41.221Z,92919.63
2023-03-10T20:58:09.521Z,92912.41
2023-03-10T21:00:36.302Z,92920.56
2023-03-10T21:03:03.806Z,92946.88
2023-03-10T21:05:30.737Z,92952.72
2023-03-10T21:07:58.313Z,92953.56
2023-03-10T21:10:27.854Z,92933.84
2023-03-10T21:12:54.826Z,92958.19
2023-03-10T21:15:22.514Z,92977.69
2023-03-10T21:17:50.265Z,92973.44
2023-03-10T21:20:21.150Z,92975.19
2023-03-10T21:22:51.050Z,93005.59
2023-03-10T21:25:24.678Z,92969.38
2023-03-10T21:27:58.690Z,92991.03
2023-03-10T21:30:29.266Z,92983.44
2023-03-10T21:32:57.445Z,93009.56
2023-03-10T21:35:25.884Z,92993.72
2023-03-10T21:37:52.806Z,92993.56
2023-03-10T21:40:20.448Z,93011.97
2023-03-10T21:42:48.320Z,93007.84
2023-03-10T21:45:18.195Z,93027.69
2023-03-10T21:47:45.767Z,93034.94
2023-03-10T21:50:13.880Z,93048.94
2023-03-10T21:52:41.677Z,93049.09
2023-03-10T21:55:13.672Z,93075.59
2023-03-10T21:57:40.604Z,93024.09
2023-03-10T22:00:10.045Z,93060.41
2023-03-10T22:02:38.049Z,93036.75
2023-03-10T22:05:06.297Z,93025.91
2023-03-10T22:07:33.427Z,93048.69
2023-03-10T22:10:00.158Z,93071.22
2023-03-10T22:12:26.894Z,93071.84
2023-03-10T22:14:57.597Z,93103.66
2023-03-10T22:17:26.256Z,93079.75
2023-03-10T22:19:57.148Z,93111.53
2023-03-10T22:22:25.340Z,93087.13
2023-03-10T22:24:54.432Z,93071.81
2023-03-10T22:27:21.183Z,93104.63
2023-03-10T22:29:48.098Z,93110.47
2023-03-10T22:32:15.033Z,93119.13
2023-03-10T22:34:42.247Z,93098.59
2023-03-10T22:37:10.371Z,93112.00
2023-03-10T22:39:40.444Z,93098.06
2023-03-10T22:42:07.276Z,93116.00
2023-03-10T22:44:38.349Z,93102.81
2023-03-10T22:47:06.057Z,93103.66
2023-03-10T22:49:32.848Z,93118.91
2023-03-10T22:51:59.733Z,93130.91
2023-03-10T22:54:26.604Z,93126.47
2023-03-10T22:56:53.566Z,93156.78
2023-03-10T22:59:20.486Z,93147.41
2023-03-10T23:01:47.531Z,93170.63
2023-03-10T23:04:14.600Z,93176.66
2023-03-10T23:06:41.749Z,93171.28
2023-03-10T23:09:10.755Z,93164.00
2023-03-10T23:11:38.365Z,93176.09
2023-03-10T23:14:05.532Z,93160.91
2023-03-10T23:16:36.735Z,93165.78
2023-03-10T23:19:07.245Z,93181.91
2023-03-10T23:21:36.459Z,93197.44
2023-03-10T23:24:03.612Z,93221.22
2023-03-10T23:26:31.492Z,93218.38
2023-03-10T23:28:58.202Z,93278.63
2023-03-10T23:31:26.417Z,93265.53
2023-03-10T23:33:53.444Z,93273.25
2023-03-10T23:36:20.516Z,93302.50
2023-03-10T23:38:47.289Z,93313.50
2023-03-10T23:41:14.032Z,93307.97
2023-03-10T23:43:41.140Z,93302.88
2023-03-10T23:46:09.307Z,93307.56
2023-03-10T23:48:36.586Z,93333.47
2023-03-10T23:51:04.154Z,93338.53
2023-03-10T23:53:31.044Z,93342.44
2023-03-10T23:56:00.056Z,93355.31
2023-03-10T23:58:28.037Z,93362.66
